Time;durP1;ratioP1;P1;durP2;ratioP2;P2;SDS_P1;SDS_P2;PMS_P1;PMS_P2;Temp;Humidity;BMP_temperature;BMP_pressure;BME280_temperature;BME280_humidity;BME280_pressure;Samples;Min_cycle;Max_cycle;Signal;HPM_P1;HPM_P2
2023/05/06 00:02:21;;;;;;;1.37;1.10;;;11.40;99.90;;;;;;4948408;29;20211;-87
2023/05/06 00:04:52;;;;;;;2.50;1.23;;;11.50;99.90;;;;;;4947278;28;20216;-87
2023/05/06 00:07:24;;;;;;;3.73;1.50;;;11.40;99.90;;;;;;4938093;29;20978;-89
2023/05/06 00:09:55;;;;;;;3.97;1.70;;;11.30;99.90;;;;;;4943156;29;20262;-87
2023/05/06 00:12:27;;;;;;;1.93;1.53;;;11.10;99.90;;;;;;4934817;29;20264;-87
2023/05/06 00:14:58;;;;;;;4.17;1.87;;;11.10;99.90;;;;;;4931398;29;20237;-87
2023/05/06 00:17:29;;;;;;;2.70;1.70;;;11.00;99.90;;;;;;4926159;29;20200;-88
2023/05/06 00:20:00;;;;;;;1.63;1.17;;;10.90;99.90;;;;;;4929866;29;20200;-87
2023/05/06 00:22:32;;;;;;;1.30;1.00;;;10.90;99.90;;;;;;4935231;29;20217;-87
2023/05/06 00:25:03;;;;;;;1.40;1.00;;;10.90;99.90;;;;;;4918116;29;20236;-86
2023/05/06 00:27:36;;;;;;;3.30;1.30;;;10.80;99.90;;;;;;4917594;29;20209;-86
2023/05/06 00:30:09;;;;;;;2.30;1.07;;;10.80;99.90;;;;;;4944987;29;20605;-87
2023/05/06 00:32:39;;;;;;;2.90;1.40;;;10.90;99.90;;;;;;4944917;28;20216;-85
2023/05/06 00:35:11;;;;;;;2.30;1.27;;;10.90;99.90;;;;;;4937094;29;20243;-87
2023/05/06 00:37:45;;;;;;;3.17;1.03;;;10.80;99.90;;;;;;4935711;29;20911;-85
2023/05/06 00:40:16;;;;;;;1.80;1.10;;;10.90;99.90;;;;;;4936550;29;20216;-87
2023/05/06 00:42:49;;;;;;;2.97;1.20;;;10.80;99.90;;;;;;4936661;29;20267;-89
2023/05/06 00:45:20;;;;;;;1.83;1.23;;;10.80;99.90;;;;;;4936604;29;20295;-87
2023/05/06 00:47:51;;;;;;;3.20;1.77;;;10.70;99.90;;;;;;4935314;29;20569;-87
2023/05/06 00:50:22;;;;;;;5.07;1.70;;;10.70;99.90;;;;;;4951611;29;20215;-86
2023/05/06 00:52:54;;;;;;;1.40;1.30;;;10.70;99.90;;;;;;4955805;28;20239;-88
2023/05/06 00:55:25;;;;;;;3.93;1.60;;;10.70;99.90;;;;;;4945549;29;20279;-95
2023/05/06 00:58:00;;;;;;;2.70;1.70;;;10.80;99.90;;;;;;4928697;29;20220;-90
2023/05/06 01:00:31;;;;;;;3.57;1.40;;;10.70;99.90;;;;;;4936324;29;20284;-91
2023/05/06 01:03:02;;;;;;;2.20;1.57;;;10.70;99.90;;;;;;4947739;29;20403;-91
2023/05/06 01:05:42;;;;;;;2.07;1.30;;;10.70;99.90;;;;;;4936525;29;20277;-91
2023/05/06 01:08:18;;;;;;;2.53;1.70;;;10.70;99.90;;;;;;4931889;29;20732;-95
2023/05/06 01:10:55;;;;;;;6.63;1.70;;;10.50;99.90;;;;;;4939092;29;20299;-94
2023/05/06 01:13:44;;;;;;;4.60;1.60;;;10.60;99.90;;;;;;4947710;29;20652;-94
2023/05/06 01:16:19;;;;;;;4.67;1.77;;;10.30;99.90;;;;;;4937511;29;20232;-92
2023/05/06 01:18:54;;;;;;;2.53;1.50;;;10.40;99.90;;;;;;4937461;29;20587;-94
2023/05/06 01:21:33;;;;;;;1.77;1.63;;;10.50;99.90;;;;;;4937940;29;20215;-91
2023/05/06 01:24:06;;;;;;;2.30;1.50;;;10.30;99.90;;;;;;4936992;29;20212;-91
2023/05/06 01:26:36;;;;;;;4.20;1.80;;;10.30;99.90;;;;;;4937452;29;20208;-88
2023/05/06 01:29:08;;;;;;;2.57;1.50;;;10.30;99.90;;;;;;4935885;29;20280;-89
2023/05/06 01:31:46;;;;;;;5.97;1.83;;;10.40;99.90;;;;;;4939562;29;20201;-90
2023/05/06 01:34:26;;;;;;;2.43;1.70;;;10.30;99.90;;;;;;4939844;29;20212;-90
2023/05/06 01:37:04;;;;;;;5.00;1.67;;;10.20;99.90;;;;;;4939831;29;20227;-91
2023/05/06 01:39:40;;;;;;;1.80;1.53;;;10.20;99.90;;;;;;4941482;29;20201;-89
2023/05/06 01:42:14;;;;;;;3.90;1.77;;;10.20;99.90;;;;;;4935031;29;20282;-89
2023/05/06 01:44:45;;;;;;;3.60;1.70;;;10.20;99.90;;;;;;4937420;29;20217;-92
2023/05/06 01:47:17;;;;;;;2.47;1.70;;;10.20;99.90;;;;;;4933646;29;20208;-90
2023/05/06 01:49:49;;;;;;;3.47;2.40;;;10.10;99.90;;;;;;4935660;29;20614;-93
2023/05/06 01:52:23;;;;;;;1.80;1.63;;;10.10;99.90;;;;;;4933897;29;20204;-91
2023/05/06 01:54:57;;;;;;;2.70;1.33;;;10.10;99.90;;;;;;4945398;29;20215;-90
2023/05/06 01:57:28;;;;;;;2.80;1.77;;;10.20;99.90;;;;;;4932854;29;20245;-91
2023/05/06 02:00:00;;;;;;;6.17;2.00;;;10.10;99.90;;;;;;4937394;29;20220;-94
2023/05/06 02:02:32;;;;;;;2.30;1.40;;;10.00;99.90;;;;;;4929856;29;20260;-94
2023/05/06 02:05:03;;;;;;;4.77;2.30;;;10.00;99.90;;;;;;4926543;29;20239;-92
2023/05/06 02:07:35;;;;;;;4.03;2.23;;;10.10;99.90;;;;;;4948348;29;20628;-93
2023/05/06 02:10:10;;;;;;;6.00;3.20;;;10.20;99.90;;;;;;4955730;29;20220;-95
2023/05/06 02:12:41;;;;;;;7.67;3.60;;;10.10;99.90;;;;;;4936713;29;20207;-92
2023/05/06 02:15:14;;;;;;;10.97;5.90;;;10.10;99.90;;;;;;4946226;29;20219;-94
2023/05/06 02:17:45;;;;;;;5.40;2.87;;;10.10;99.90;;;;;;4936005;29;20212;-95
2023/05/06 02:20:17;;;;;;;3.53;2.90;;;10.10;99.90;;;;;;4937776;29;20212;-96
2023/05/06 02:22:48;;;;;;;3.53;3.03;;;10.10;99.90;;;;;;4952025;29;20284;-93
2023/05/06 02:25:31;;;;;;;3.17;2.74;;;10.10;99.90;;;;;;4910593;23;10002949;-93
2023/05/06 02:28:02;;;;;;;2.67;2.10;;;10.10;99.90;;;;;;4929926;29;20429;-95
2023/05/06 02:30:34;;;;;;;3.43;2.30;;;10.10;99.90;;;;;;4932891;29;20200;-93
2023/05/06 02:33:05;;;;;;;2.30;1.90;;;10.10;99.90;;;;;;4913781;29;20224;-91
2023/05/06 02:35:37;;;;;;;2.80;2.57;;;10.00;99.90;;;;;;4921889;29;20233;-87
2023/05/06 02:38:08;;;;;;;3.53;2.20;;;10.00;99.90;;;;;;4917687;29;20629;-92
2023/05/06 02:40:42;;;;;;;5.67;2.73;;;9.90;99.90;;;;;;4922203;29;20213;-90
2023/05/06 02:43:13;;;;;;;5.13;4.03;;;10.00;99.90;;;;;;4922078;29;20260;-91
2023/05/06 02:45:44;;;;;;;3.53;2.03;;;10.00;99.90;;;;;;4934584;29;20221;-90
2023/05/06 02:48:15;;;;;;;2.83;1.90;;;10.00;99.90;;;;;;4934021;29;20212;-90
2023/05/06 02:50:46;;;;;;;2.03;1.77;;;10.00;99.90;;;;;;4923256;29;20215;-93
2023/05/06 02:53:18;;;;;;;2.00;1.47;;;10.00;99.90;;;;;;4936818;29;20570;-91
2023/05/06 02:55:51;;;;;;;3.37;1.83;;;10.00;99.90;;;;;;4936243;29;20243;-91
2023/05/06 02:58:23;;;;;;;3.43;1.67;;;9.90;99.90;;;;;;4933461;29;20212;-90
2023/05/06 03:00:54;;;;;;;8.33;1.90;;;9.90;99.90;;;;;;4922003;29;20212;-90
2023/05/06 03:03:25;;;;;;;2.17;1.80;;;9.80;99.90;;;;;;4933796;29;20234;-91
2023/05/06 03:05:56;;;;;;;4.63;1.67;;;9.80;99.90;;;;;;4943522;29;20224;-90
2023/05/06 03:08:27;;;;;;;3.73;1.67;;;9.80;99.90;;;;;;4930540;29;20212;-92
2023/05/06 03:11:01;;;;;;;1.60;1.50;;;9.70;99.90;;;;;;4931647;29;20268;-91
2023/05/06 03:13:32;;;;;;;3.77;2.03;;;9.70;99.90;;;;;;4927157;29;20660;-96
2023/05/06 03:16:20;;;;;;;3.17;2.10;;;9.80;99.90;;;;;;4931519;29;20653;-95
2023/05/06 03:18:51;;;;;;;3.50;1.70;;;9.80;99.90;;;;;;4923645;29;20209;-95
2023/05/06 03:21:22;;;;;;;5.00;2.13;;;9.80;99.90;;;;;;4911625;29;20213;-94
2023/05/06 03:23:53;;;;;;;3.07;1.73;;;9.90;99.90;;;;;;4923560;29;20244;-94
2023/05/06 03:26:26;;;;;;;2.73;1.67;;;9.90;99.90;;;;;;4933674;29;20261;-95
2023/05/06 03:28:57;;;;;;;3.67;1.30;;;9.90;99.90;;;;;;4942250;29;20201;-95
2023/05/06 03:31:28;;;;;;;2.23;1.70;;;9.90;99.90;;;;;;4945358;29;20205;-91
2023/05/06 03:34:00;;;;;;;3.97;2.20;;;9.80;99.90;;;;;;4943403;29;20205;-94
2023/05/06 03:36:32;;;;;;;3.87;1.80;;;9.70;99.90;;;;;;4941883;29;20300;-95
2023/05/06 03:39:05;;;;;;;4.03;1.80;;;9.70;99.90;;;;;;4930664;29;20205;-96
2023/05/06 03:41:38;;;;;;;2.97;1.70;;;9.70;99.90;;;;;;4939620;29;20221;-90
2023/05/06 03:44:09;;;;;;;3.13;2.10;;;9.70;99.90;;;;;;4939653;29;20498;-95
2023/05/06 03:46:41;;;;;;;3.30;2.00;;;9.70;99.90;;;;;;4924588;29;20555;-94
2023/05/06 03:49:12;;;;;;;4.03;1.80;;;9.70;99.90;;;;;;4923159;29;20209;-96
2023/05/06 03:51:46;;;;;;;3.53;1.70;;;9.80;99.90;;;;;;4936308;29;20209;-93
2023/05/06 03:54:17;;;;;;;5.27;2.13;;;9.80;99.90;;;;;;4948363;29;20227;-92
2023/05/06 03:56:51;;;;;;;5.03;2.00;;;9.90;99.90;;;;;;4946986;29;20235;-95
2023/05/06 03:59:23;;;;;;;2.93;1.97;;;9.80;99.90;;;;;;4923756;29;20217;-94
2023/05/06 04:01:55;;;;;;;3.30;1.80;;;9.70;99.90;;;;;;4919318;29;20213;-89
2023/05/06 04:04:27;;;;;;;5.17;2.23;;;9.70;99.90;;;;;;4931529;29;20223;-95
2023/05/06 04:06:58;;;;;;;3.73;2.23;;;9.60;99.90;;;;;;4938532;29;20206;-92
2023/05/06 04:09:30;;;;;;;3.13;2.10;;;9.60;99.90;;;;;;4930211;29;20224;-91
2023/05/06 04:12:04;;;;;;;4.63;2.23;;;9.70;99.90;;;;;;4938608;29;20209;-91
2023/05/06 04:14:36;;;;;;;5.70;2.10;;;9.70;99.90;;;;;;4929701;29;20248;-92
2023/05/06 04:17:07;;;;;;;4.73;1.80;;;9.60;99.90;;;;;;4929415;29;20245;-93
2023/05/06 04:19:39;;;;;;;3.40;1.97;;;9.60;99.90;;;;;;4941161;29;20237;-92
2023/05/06 04:22:10;;;;;;;4.40;2.30;;;9.50;99.90;;;;;;4929174;29;20202;-91
2023/05/06 04:24:44;;;;;;;4.67;1.83;;;9.50;99.90;;;;;;4929369;29;20198;-92
2023/05/06 04:27:18;;;;;;;2.53;2.00;;;9.60;99.90;;;;;;4935267;29;20283;-94
2023/05/06 04:29:49;;;;;;;3.03;1.93;;;9.60;99.90;;;;;;4934907;29;20245;-94
2023/05/06 04:32:24;;;;;;;4.47;2.13;;;9.60;99.90;;;;;;4931591;29;20223;-91
2023/05/06 04:34:55;;;;;;;4.37;2.20;;;9.60;99.90;;;;;;4918569;29;20228;-94
2023/05/06 04:37:27;;;;;;;2.83;2.20;;;9.70;99.90;;;;;;4936718;29;20239;-93
2023/05/06 04:39:59;;;;;;;4.80;2.50;;;9.60;99.90;;;;;;5023007;23;20255;-95
2023/05/06 04:42:33;;;;;;;9.70;2.33;;;9.50;99.90;;;;;;4942114;29;20203;-96
2023/05/06 04:45:05;;;;;;;2.63;2.33;;;9.40;99.90;;;;;;4941558;29;20193;-95
2023/05/06 04:47:38;;;;;;;3.03;2.30;;;9.40;99.90;;;;;;4951185;29;20207;-95
2023/05/06 04:50:09;;;;;;;3.93;2.30;;;9.40;99.90;;;;;;4964203;28;20196;-93
2023/05/06 04:52:40;;;;;;;3.70;2.63;;;9.40;99.90;;;;;;4940477;29;20204;-95
2023/05/06 04:55:11;;;;;;;7.17;3.23;;;9.40;99.90;;;;;;4946294;29;20202;-95
2023/05/06 04:57:44;;;;;;;5.07;2.80;;;9.40;99.90;;;;;;4943494;29;20240;-95
2023/05/06 05:00:16;;;;;;;4.80;2.70;;;9.30;99.90;;;;;;4967932;29;20189;-96
2023/05/06 05:02:48;;;;;;;8.93;3.40;;;9.40;99.90;;;;;;4954886;28;20225;-96
2023/05/06 05:05:19;;;;;;;7.37;3.30;;;9.40;99.90;;;;;;4953802;29;20240;-96
2023/05/06 05:07:51;;;;;;;5.00;2.87;;;9.40;99.90;;;;;;4940994;28;20189;-95
2023/05/06 05:10:23;;;;;;;5.03;3.03;;;9.30;99.90;;;;;;4955459;29;20197;-93
2023/05/06 05:12:56;;;;;;;5.53;2.80;;;9.30;99.90;;;;;;4944766;29;20264;-95
2023/05/06 05:15:27;;;;;;;5.77;2.37;;;9.30;99.90;;;;;;4940133;29;20216;-94
2023/05/06 05:17:58;;;;;;;7.93;2.50;;;9.30;99.90;;;;;;4940992;29;20241;-95
2023/05/06 05:23:06;;;;;;;4.37;2.40;;;9.20;99.90;;;;;;5475332;23;20218;-92
2023/05/06 05:25:38;;;;;;;4.33;2.60;;;9.30;99.90;;;;;;4941610;29;20272;-96
2023/05/06 05:28:11;;;;;;;3.10;2.00;;;9.30;99.90;;;;;;4946233;28;20187;-96
2023/05/06 05:30:43;;;;;;;5.23;2.70;;;9.20;99.90;;;;;;5602942;23;20232;-95
2023/05/06 05:41:11;;;;;;;5.60;2.67;;;9.30;99.90;;;;;;4938742;29;20228;-93
2023/05/06 05:43:48;;;;;;;3.70;2.53;;;9.30;99.90;;;;;;4940235;29;20272;-96
2023/05/06 05:46:20;;;;;;;5.93;2.60;;;9.30;99.90;;;;;;4948881;28;20244;-96
2023/05/06 05:48:52;;;;;;;5.53;2.90;;;9.40;99.90;;;;;;4954777;29;20212;-96
2023/05/06 05:51:24;;;;;;;7.57;3.00;;;9.30;99.90;;;;;;4960410;28;20207;-96
2023/05/06 05:53:57;;;;;;;5.50;2.47;;;9.20;99.90;;;;;;4960486;28;20221;-96
2023/05/06 05:56:29;;;;;;;5.40;2.60;;;9.30;99.90;;;;;;4959964;29;20231;-96
2023/05/06 05:59:07;;;;;;;4.27;2.70;;;9.40;99.90;;;;;;4958897;29;20247;-96
2023/05/06 06:08:00;;;;;;;4.97;2.50;;;9.30;99.90;;;;;;4914320;29;20218;-96
2023/05/06 06:10:40;;;;;;;5.17;3.20;;;9.30;99.90;;;;;;4921183;29;20237;-96
2023/05/06 06:25:30;;;;;;;6.50;3.40;;;9.10;99.90;;;;;;5176842;23;20243;-96
2023/05/06 06:28:02;;;;;;;8.80;3.27;;;9.20;99.90;;;;;;5474649;23;20244;-91
2023/05/06 06:30:33;;;;;;;7.87;2.90;;;9.10;99.90;;;;;;4959607;28;20212;-96
2023/05/06 06:33:07;;;;;;;4.40;3.10;;;9.10;99.90;;;;;;4977929;28;20246;-96
2023/05/06 07:02:41;;;;;;;6.37;3.33;;;9.30;99.90;;;;;;5306708;23;20263;-95
2023/05/06 07:05:13;;;;;;;5.93;3.70;;;9.20;99.90;;;;;;4958966;28;20192;-96
2023/05/06 07:07:48;;;;;;;6.03;3.50;;;9.20;99.90;;;;;;4957243;28;20201;-96
2023/05/06 07:10:22;;;;;;;6.83;3.40;;;9.20;99.90;;;;;;4957688;29;20219;-96
2023/05/06 07:12:54;;;;;;;5.87;3.50;;;9.20;99.90;;;;;;5049464;23;20278;-96
2023/05/06 07:15:26;;;;;;;6.60;3.53;;;9.20;99.90;;;;;;4957019;29;20236;-96
2023/05/06 07:17:58;;;;;;;4.67;3.10;;;9.30;99.90;;;;;;4954493;29;20247;-96
2023/05/06 07:20:30;;;;;;;6.93;3.73;;;9.30;99.90;;;;;;4950233;29;20234;-96
2023/05/06 08:30:27;;;;;;;8.13;3.30;;;9.10;99.90;;;;;;5434822;23;20260;-96
2023/05/06 08:32:58;;;;;;;6.70;3.30;;;9.10;99.90;;;;;;4942264;29;20256;-96
2023/05/06 08:35:29;;;;;;;7.90;3.03;;;9.20;99.90;;;;;;4942780;29;20257;-96
2023/05/06 09:10:49;;;;;;;3.77;2.83;;;9.40;99.90;;;;;;5410919;23;20246;-96
2023/05/06 09:13:20;;;;;;;6.33;3.43;;;9.40;99.90;;;;;;4954588;29;20208;-96
2023/05/06 09:15:55;;;;;;;4.33;2.80;;;9.30;99.90;;;;;;4948354;29;20256;-96
2023/05/06 09:18:27;;;;;;;8.00;3.17;;;9.30;99.90;;;;;;4954170;29;20239;-96
2023/05/06 09:20:57;;;;;;;7.10;3.37;;;9.30;99.90;;;;;;4959632;28;20263;-96
2023/05/06 09:23:30;;;;;;;7.43;3.70;;;9.30;99.90;;;;;;4959998;28;20212;-96
2023/05/06 09:26:03;;;;;;;7.60;4.17;;;9.30;99.90;;;;;;4960535;29;20200;-96
2023/05/06 09:28:34;;;;;;;9.90;4.10;;;9.30;99.90;;;;;;4960201;28;20208;-96
2023/05/06 09:31:07;;;;;;;7.10;3.40;;;9.30;99.90;;;;;;4959824;29;20298;-96
2023/05/06 09:49:33;;;;;;;8.20;4.10;;;9.40;99.90;;;;;;5383446;23;20202;-91
2023/05/06 10:02:55;;;;;;;7.87;3.80;;;9.40;99.90;;;;;;5921659;23;20259;-95
2023/05/06 10:10:47;;;;;;;5.77;3.50;;;9.40;99.90;;;;;;4987050;23;20254;-96
2023/05/06 10:13:20;;;;;;;7.50;3.97;;;9.40;99.90;;;;;;4946320;29;20284;-96
2023/05/06 10:15:55;;;;;;;8.47;4.20;;;9.30;99.90;;;;;;4946040;29;20211;-96
2023/05/06 10:18:30;;;;;;;9.73;4.63;;;9.40;99.90;;;;;;4969264;28;20233;-95
2023/05/06 10:21:05;;;;;;;9.17;4.20;;;9.40;99.90;;;;;;4958600;28;20199;-96
2023/05/06 10:23:44;;;;;;;8.17;4.77;;;9.40;99.90;;;;;;4956137;29;20294;-96
2023/05/06 10:26:20;;;;;;;7.57;4.47;;;9.30;99.90;;;;;;4959289;28;20217;-96
2023/05/06 10:28:55;;;;;;;7.90;5.20;;;9.40;99.90;;;;;;4958861;29;20219;-96
2023/05/06 10:31:27;;;;;;;5.33;4.73;;;9.30;99.90;;;;;;5173872;23;20224;-96
2023/05/06 10:34:02;;;;;;;10.83;5.00;;;9.40;99.90;;;;;;4959383;28;20295;-96
2023/05/06 10:36:35;;;;;;;9.67;5.13;;;9.40;99.90;;;;;;4954782;28;20204;-96
2023/05/06 10:57:59;;;;;;;12.73;5.23;;;9.30;99.90;;;;;;5905170;23;20244;-96
2023/05/06 11:00:36;;;;;;;13.13;5.63;;;9.30;99.90;;;;;;4953670;29;20239;-96
2023/05/06 11:03:08;;;;;;;11.30;5.10;;;9.30;99.90;;;;;;4954897;29;20222;-96
2023/05/06 11:05:50;;;;;;;10.53;4.93;;;9.30;99.90;;;;;;4960726;29;20208;-97
2023/05/06 11:08:25;;;;;;;7.60;4.93;;;9.30;99.90;;;;;;4957815;29;20318;-96
2023/05/06 11:10:57;;;;;;;9.53;4.67;;;9.20;99.90;;;;;;4961055;28;20196;-96
2023/05/06 11:13:35;;;;;;;10.47;4.83;;;9.20;99.90;;;;;;4962734;28;20264;-96
2023/05/06 11:16:07;;;;;;;5.30;4.03;;;9.30;99.90;;;;;;4952356;29;20204;-96
2023/05/06 11:18:45;;;;;;;6.47;4.37;;;9.20;99.90;;;;;;4960018;29;20386;-96
2023/05/06 11:21:39;;;;;;;7.33;5.00;;;9.20;99.90;;;;;;4954679;29;20701;-96
2023/05/06 11:24:15;;;;;;;8.90;4.43;;;9.20;99.90;;;;;;4952694;29;20212;-96
2023/05/06 11:26:48;;;;;;;8.73;4.77;;;9.10;99.90;;;;;;4951863;29;20229;-96
2023/05/06 11:29:22;;;;;;;7.53;3.83;;;9.10;99.90;;;;;;4953009;29;20200;-96
2023/05/06 11:31:53;;;;;;;7.30;4.53;;;9.10;99.90;;;;;;4965186;29;20203;-96
2023/05/06 11:34:27;;;;;;;9.00;4.27;;;9.20;99.90;;;;;;4956748;28;20209;-96
2023/05/06 11:37:01;;;;;;;8.00;4.00;;;9.20;99.90;;;;;;4956372;29;20267;-95
2023/05/06 11:39:35;;;;;;;8.47;4.47;;;9.10;99.90;;;;;;4956257;29;20315;-96
2023/05/06 11:42:10;;;;;;;10.37;4.00;;;9.10;99.90;;;;;;4949533;29;20205;-96
2023/05/06 12:19:49;;;;;;;10.33;5.43;;;9.10;99.90;;;;;;5109804;23;20243;-96
2023/05/06 12:22:21;;;;;;;7.80;4.43;;;9.00;99.90;;;;;;4960774;29;20211;-96
2023/05/06 12:24:52;;;;;;;8.03;4.50;;;9.00;99.90;;;;;;4967936;28;20333;-96
2023/05/06 12:27:32;;;;;;;5.73;4.07;;;9.00;99.90;;;;;;4952094;29;20216;-96
2023/05/06 12:30:07;;;;;;;6.73;4.17;;;9.00;99.90;;;;;;4949019;29;20240;-96
2023/05/06 12:32:57;;;;;;;5.70;3.80;;;9.00;99.90;;;;;;4948960;29;20235;-96
2023/05/06 12:35:32;;;;;;;8.13;3.87;;;9.10;99.90;;;;;;4929971;29;20209;-96
2023/05/06 12:38:11;;;;;;;9.07;4.17;;;9.00;99.90;;;;;;4927958;29;20687;-96
2023/05/06 12:40:42;;;;;;;9.80;4.33;;;9.10;99.90;;;;;;4934323;29;20241;-96
2023/05/06 12:43:14;;;;;;;7.73;3.93;;;9.10;99.90;;;;;;4950461;29;20225;-96
2023/05/06 12:46:07;;;;;;;10.17;3.70;;;9.10;99.90;;;;;;4931988;29;20659;-96
2023/05/06 12:48:38;;;;;;;8.97;4.37;;;9.00;99.90;;;;;;4946043;28;20176;-95
2023/05/06 13:23:30;;;;;;;10.00;3.40;;;8.90;99.90;;;;;;4998303;23;20264;-96
2023/05/06 13:26:04;;;;;;;5.63;3.33;;;9.00;99.90;;;;;;4957314;29;20223;-96
2023/05/06 13:28:35;;;;;;;8.17;3.47;;;9.00;99.90;;;;;;4957566;29;20196;-96
2023/05/06 13:31:07;;;;;;;5.83;3.60;;;9.00;99.90;;;;;;4939676;29;20209;-96
2023/05/06 13:33:39;;;;;;;7.23;3.70;;;9.00;99.90;;;;;;4937474;29;20236;-96
2023/05/06 13:36:21;;;;;;;8.43;3.33;;;9.10;99.90;;;;;;4934833;29;20209;-96
2023/05/06 13:38:54;;;;;;;14.50;4.40;;;9.10;99.90;;;;;;4948360;29;20260;-96
2023/05/06 13:41:26;;;;;;;10.60;3.70;;;9.00;99.90;;;;;;4956741;29;20212;-96
2023/05/06 13:43:58;;;;;;;8.00;4.07;;;9.00;99.90;;;;;;4948789;29;20212;-96
2023/05/06 13:46:30;;;;;;;7.10;3.77;;;8.90;99.90;;;;;;4930170;29;20269;-95
2023/05/06 13:49:02;;;;;;;12.90;4.17;;;8.90;99.90;;;;;;4925052;29;20248;-96
2023/05/06 13:51:33;;;;;;;11.17;4.50;;;8.80;99.90;;;;;;4927166;29;20241;-96
2023/05/06 13:54:07;;;;;;;9.50;4.30;;;8.80;99.90;;;;;;4930075;29;20220;-96
2023/05/06 13:56:38;;;;;;;10.53;4.83;;;8.80;99.90;;;;;;4930666;29;20213;-96
2023/05/06 13:59:12;;;;;;;8.00;4.27;;;8.90;99.90;;;;;;4934331;29;20209;-96
2023/05/06 14:01:45;;;;;;;9.53;4.30;;;8.90;99.90;;;;;;4934698;29;20225;-96
2023/05/06 14:04:16;;;;;;;11.50;4.50;;;8.90;99.90;;;;;;4930162;29;20213;-96
2023/05/06 14:06:48;;;;;;;9.97;4.80;;;8.80;99.90;;;;;;4937166;29;20241;-96
2023/05/06 14:09:23;;;;;;;12.23;4.57;;;8.80;99.90;;;;;;4930969;29;20217;-96
2023/05/06 14:11:55;;;;;;;9.40;4.70;;;9.00;99.90;;;;;;5010989;23;20247;-96
2023/05/06 14:14:26;;;;;;;9.90;4.23;;;8.90;99.90;;;;;;4958322;28;20209;-94
2023/05/06 14:17:12;;;;;;;10.27;4.53;;;8.90;99.90;;;;;;4940877;29;20209;-94
2023/05/06 14:19:44;;;;;;;10.23;4.40;;;8.90;99.90;;;;;;4935101;29;20233;-96
2023/05/06 14:22:16;;;;;;;10.43;4.20;;;9.00;99.90;;;;;;4923375;29;20223;-96
2023/05/06 14:24:49;;;;;;;8.27;3.73;;;9.00;99.90;;;;;;4931848;29;20204;-96
2023/05/06 14:27:21;;;;;;;10.27;4.37;;;9.10;99.90;;;;;;4948162;29;20209;-96
2023/05/06 14:29:52;;;;;;;8.90;4.70;;;9.10;99.90;;;;;;4945266;29;20223;-96
2023/05/06 14:32:23;;;;;;;9.60;4.20;;;9.00;99.90;;;;;;4948935;29;20278;-96
2023/05/06 14:34:55;;;;;;;9.27;4.87;;;8.90;99.90;;;;;;4923887;29;20205;-96
2023/05/06 14:37:26;;;;;;;11.43;4.47;;;8.90;99.90;;;;;;4924308;29;20304;-96
2023/05/06 14:40:06;;;;;;;10.47;4.13;;;9.00;99.90;;;;;;4940484;29;20235;-96
2023/05/06 14:42:38;;;;;;;10.00;4.60;;;9.00;99.90;;;;;;4951984;28;20216;-96
2023/05/06 14:45:09;;;;;;;7.13;3.90;;;9.10;99.90;;;;;;4937109;29;20217;-96
2023/05/06 14:47:41;;;;;;;8.87;4.53;;;9.10;99.90;;;;;;4957324;29;20208;-96
2023/05/06 14:50:13;;;;;;;9.43;4.03;;;9.10;99.90;;;;;;4964264;28;20190;-96
2023/05/06 14:52:44;;;;;;;7.83;3.90;;;9.10;99.90;;;;;;4966537;28;20237;-96
2023/05/06 14:55:19;;;;;;;11.27;4.40;;;9.10;99.90;;;;;;4958389;28;20196;-96
2023/05/06 14:57:49;;;;;;;8.83;4.27;;;9.10;99.90;;;;;;4959128;28;20192;-96
2023/05/06 15:05:38;;;;;;;9.60;4.17;;;9.00;99.90;;;;;;5799468;23;20228;-96
2023/05/06 15:08:10;;;;;;;9.90;4.30;;;9.10;99.90;;;;;;5150236;23;20248;-96
2023/05/06 15:10:44;;;;;;;13.63;4.27;;;9.20;99.90;;;;;;4935265;29;20213;-96
2023/05/06 15:15:51;;;;;;;11.40;3.93;;;9.40;99.90;;;;;;5171793;23;20251;-96
2023/05/06 15:21:28;;;;;;;8.33;4.70;;;9.40;99.90;;;;;;5806711;23;20262;-90
2023/05/06 15:24:01;;;;;;;12.53;4.93;;;9.60;99.90;;;;;;4973338;28;20216;-96
2023/05/06 15:26:35;;;;;;;9.43;4.03;;;9.60;99.90;;;;;;4977066;28;20239;-94
2023/05/06 15:29:07;;;;;;;9.33;4.63;;;9.50;99.90;;;;;;4957104;29;20211;-96
2023/05/06 15:31:39;;;;;;;7.77;4.67;;;9.50;99.90;;;;;;4972539;28;20199;-96
2023/05/06 15:34:12;;;;;;;10.97;4.77;;;9.50;99.90;;;;;;4972729;29;20192;-96
2023/05/06 15:36:43;;;;;;;8.30;4.53;;;9.60;99.90;;;;;;4978247;28;20192;-96
2023/05/06 15:39:16;;;;;;;10.17;3.97;;;9.70;99.90;;;;;;4975906;28;20219;-96
2023/05/06 15:41:49;;;;;;;8.17;4.27;;;9.80;99.90;;;;;;4959149;28;20220;-96
2023/05/06 15:44:20;;;;;;;9.27;4.20;;;9.90;99.90;;;;;;4961306;28;20203;-96
2023/05/06 15:46:51;;;;;;;10.30;4.10;;;9.90;99.90;;;;;;4973812;28;20250;-96
2023/05/06 15:49:22;;;;;;;9.17;4.90;;;9.80;99.90;;;;;;4951980;28;20204;-96
2023/05/06 15:51:57;;;;;;;8.83;5.50;;;9.80;99.90;;;;;;4958666;28;20271;-96
2023/05/06 15:54:30;;;;;;;11.73;5.10;;;9.90;99.90;;;;;;4945809;29;20355;-96
2023/05/06 15:57:05;;;;;;;7.37;4.53;;;10.00;99.90;;;;;;4948395;29;20280;-95
2023/05/06 15:59:36;;;;;;;9.23;4.63;;;10.20;99.90;;;;;;4967561;28;20207;-96
2023/05/06 16:02:07;;;;;;;12.47;5.17;;;10.20;99.90;;;;;;5002498;28;20212;-96
2023/05/06 16:04:42;;;;;;;10.57;5.23;;;10.10;99.90;;;;;;4962345;28;20240;-96
2023/05/06 16:07:14;;;;;;;11.07;5.67;;;10.10;99.90;;;;;;4962403;28;20224;-96
2023/05/06 16:09:45;;;;;;;11.30;5.47;;;10.10;99.90;;;;;;4961952;28;20220;-96
2023/05/06 16:12:19;;;;;;;8.33;4.80;;;10.30;99.90;;;;;;4962694;28;20203;-96
2023/05/06 16:14:50;;;;;;;7.37;4.90;;;10.30;99.90;;;;;;4992762;28;20222;-96
2023/05/06 16:17:22;;;;;;;10.17;5.13;;;10.20;99.90;;;;;;4960247;28;20212;-96
2023/05/06 16:19:53;;;;;;;10.43;4.93;;;10.10;99.90;;;;;;4953985;29;20216;-96
2023/05/06 16:22:24;;;;;;;8.13;4.67;;;10.40;99.90;;;;;;4961523;28;20232;-96
2023/05/06 16:24:57;;;;;;;9.63;4.87;;;10.20;99.90;;;;;;4978598;28;20187;-92
2023/05/06 16:27:29;;;;;;;9.70;5.03;;;10.20;99.90;;;;;;5000559;28;20195;-96
2023/05/06 16:30:01;;;;;;;6.40;3.73;;;10.40;99.90;;;;;;4993750;28;20203;-96
2023/05/06 16:32:31;;;;;;;6.50;3.97;;;10.50;99.90;;;;;;4990703;28;20234;-96
2023/05/06 16:35:02;;;;;;;7.53;4.67;;;10.50;99.90;;;;;;4987677;28;20224;-96
2023/05/06 16:37:33;;;;;;;9.67;4.57;;;10.50;99.90;;;;;;4995343;28;20290;-96
2023/05/06 16:40:05;;;;;;;8.13;4.20;;;10.50;99.90;;;;;;4986077;28;20205;-96
2023/05/06 16:42:37;;;;;;;7.17;4.00;;;10.70;99.90;;;;;;4953829;28;20291;-96
2023/05/06 16:45:09;;;;;;;9.13;3.70;;;10.70;99.90;;;;;;4946512;29;20647;-96
2023/05/06 16:47:40;;;;;;;9.07;4.17;;;10.50;99.90;;;;;;4957154;29;20210;-95
2023/05/06 16:50:12;;;;;;;6.57;3.83;;;10.60;99.90;;;;;;4949891;28;20208;-96
2023/05/06 16:52:44;;;;;;;10.67;3.67;;;10.80;99.90;;;;;;4954897;29;20322;-95
2023/05/06 16:55:15;;;;;;;9.50;4.13;;;11.00;99.90;;;;;;4958753;28;20219;-94
2023/05/06 16:57:48;;;;;;;6.33;3.57;;;10.70;99.90;;;;;;4951155;28;20224;-95
2023/05/06 17:00:20;;;;;;;7.03;3.57;;;10.70;99.90;;;;;;4965830;28;20208;-95
2023/05/06 17:02:52;;;;;;;5.67;3.40;;;10.80;99.90;;;;;;4960395;28;20311;-96
2023/05/06 17:05:23;;;;;;;6.20;3.43;;;10.90;99.90;;;;;;4966473;29;20216;-96
2023/05/06 17:07:54;;;;;;;6.37;3.77;;;10.90;99.90;;;;;;4961675;28;20215;-96
2023/05/06 17:10:28;;;;;;;7.83;3.47;;;10.80;99.90;;;;;;4963781;28;20204;-93
2023/05/06 17:13:03;;;;;;;6.53;3.83;;;10.80;99.90;;;;;;4965042;28;20234;-96
2023/05/06 17:15:35;;;;;;;6.10;3.63;;;11.00;99.90;;;;;;4966493;29;20236;-96
2023/05/06 17:18:06;;;;;;;5.30;3.80;;;11.20;99.90;;;;;;4973855;28;20211;-96
2023/05/06 17:20:38;;;;;;;4.43;3.40;;;11.40;99.90;;;;;;4968151;28;20219;-96
2023/05/06 17:23:25;;;;;;;5.40;2.70;;;11.70;99.90;;;;;;4976699;28;20207;-96
2023/05/06 17:25:57;;;;;;;5.07;3.27;;;12.00;99.90;;;;;;4963169;28;20220;-96
2023/05/06 17:28:31;;;;;;;6.40;3.50;;;12.00;99.90;;;;;;4958849;29;20235;-96
2023/05/06 17:31:02;;;;;;;7.77;3.17;;;11.70;99.90;;;;;;4967088;28;20212;-96
2023/05/06 17:33:34;;;;;;;8.33;3.80;;;11.70;99.90;;;;;;4960086;28;20242;-96
2023/05/06 17:36:05;;;;;;;6.97;3.70;;;11.90;99.90;;;;;;4964507;29;20199;-96
2023/05/06 17:38:36;;;;;;;8.70;3.20;;;11.70;99.90;;;;;;4968129;28;20202;-96
2023/05/06 17:41:07;;;;;;;5.53;3.50;;;11.80;99.90;;;;;;4971097;28;20645;-96
2023/05/06 17:43:40;;;;;;;7.00;3.27;;;11.90;99.90;;;;;;4953493;29;20223;-96
2023/05/06 17:46:11;;;;;;;5.90;2.77;;;12.10;99.90;;;;;;4958885;29;20206;-96
2023/05/06 17:48:42;;;;;;;7.20;3.07;;;11.80;99.90;;;;;;4967669;29;20199;-96
2023/05/06 17:51:13;;;;;;;4.20;2.20;;;11.80;99.90;;;;;;4969848;28;20203;-96
2023/05/06 17:53:44;;;;;;;2.93;1.97;;;12.00;99.90;;;;;;4970211;28;20267;-96
2023/05/06 17:56:15;;;;;;;5.63;2.17;;;12.20;99.90;;;;;;4968891;28;20206;-96
2023/05/06 17:58:48;;;;;;;3.13;1.90;;;11.90;99.90;;;;;;4994201;23;20248;-96
2023/05/06 18:01:20;;;;;;;3.40;1.90;;;11.70;99.90;;;;;;4944915;28;20217;-96
2023/05/06 18:03:51;;;;;;;4.87;2.20;;;11.90;99.90;;;;;;4942925;29;20241;-96
2023/05/06 18:06:23;;;;;;;4.17;1.97;;;12.10;99.90;;;;;;4951452;29;20244;-96